Time;durP1;ratioP1;P1;durP2;ratioP2;P2;SDS_P1;SDS_P2;PMS_P1;PMS_P2;Temp;Humidity;BMP_temperature;BMP_pressure;BME280_temperature;BME280_humidity;BME280_pressure;Samples;Min_cycle;Max_cycle;Signal;HPM_P1;HPM_P2
2021/12/02 00:02:11;;;;;;;5.00;2.20;;;;;;;-7.48;78.69;97345.53;4826199;29;20054;-87
2021/12/02 00:04:40;;;;;;;3.33;1.92;;;;;;;-7.49;78.75;97357.00;4825841;29;20137;-85
2021/12/02 00:07:07;;;;;;;4.05;2.47;;;;;;;-7.49;78.93;97357.00;4826059;29;20087;-88
2021/12/02 00:09:36;;;;;;;5.65;3.28;;;;;;;-7.48;79.17;97353.38;4842655;29;20153;-86
2021/12/02 00:12:06;;;;;;;6.18;2.85;;;;;;;-7.47;79.23;97359.44;4844198;29;20113;-87
2021/12/02 00:14:42;;;;;;;5.60;2.88;;;;;;;-7.46;79.26;97366.31;4827658;29;20092;-87
2021/12/02 00:17:15;;;;;;;3.83;1.67;;;;;;;-7.53;79.54;97368.81;4826052;29;20425;-88
2021/12/02 00:22:29;;;;;;;5.80;2.67;;;;;;;-7.56;80.06;97384.88;4843503;29;20135;-88
2021/12/02 00:25:00;;;;;;;4.70;2.72;;;;;;;-7.54;80.34;97388.13;4842471;29;20065;-87
2021/12/02 00:27:29;;;;;;;4.15;2.78;;;;;;;-7.56;80.51;97397.16;4837657;29;20053;-88
2021/12/02 00:30:00;;;;;;;6.13;2.75;;;;;;;-7.56;80.71;97397.16;4825175;29;20102;-87
2021/12/02 00:32:29;;;;;;;4.68;3.25;;;;;;;-7.53;80.66;97402.06;4810982;29;20073;-84
2021/12/02 00:34:58;;;;;;;5.95;2.83;;;;;;;-7.54;80.62;97400.44;4825198;29;20045;-85
2021/12/02 00:37:26;;;;;;;6.13;2.15;;;;;;;-7.59;80.86;97405.38;4841210;29;20136;-85
2021/12/02 00:39:53;;;;;;;5.28;2.47;;;;;;;-7.58;81.00;97397.31;4841016;29;20060;-87
2021/12/02 00:42:20;;;;;;;3.20;2.65;;;;;;;-7.61;81.11;97404.72;4810043;29;20351;-86
2021/12/02 00:44:47;;;;;;;5.57;2.40;;;;;;;-7.59;81.36;97415.84;4842921;29;20088;-87
2021/12/02 00:47:16;;;;;;;3.72;2.25;;;;;;;-7.59;81.82;97423.69;4841106;29;20076;-83
2021/12/02 00:49:45;;;;;;;3.83;2.45;;;;;;;-7.60;81.66;97417.63;4838490;29;20140;-87
2021/12/02 00:52:13;;;;;;;3.97;2.47;;;;;;;-7.63;81.72;97415.34;4825268;29;20049;-89
2021/12/02 00:54:42;;;;;;;3.45;2.40;;;;;;;-7.54;81.67;97432.69;4843416;29;20054;-83
2021/12/02 00:57:11;;;;;;;7.43;2.55;;;;;;;-7.54;81.33;97432.69;4825100;29;20474;-84
2021/12/02 00:59:38;;;;;;;6.95;2.88;;;;;;;-7.56;81.38;97445.13;4840162;29;20106;-85
2021/12/02 01:02:07;;;;;;;3.95;2.50;;;;;;;-7.54;81.30;97442.34;4841063;29;20062;-84
2021/12/02 01:04:34;;;;;;;6.03;3.30;;;;;;;-7.54;81.28;97440.53;4809978;29;20502;-83
2021/12/02 01:07:02;;;;;;;6.07;1.98;;;;;;;-7.52;81.25;97443.81;4827353;29;20085;-85
2021/12/02 01:09:29;;;;;;;4.78;3.13;;;;;;;-7.53;81.23;97439.56;4847003;29;20046;-85
2021/12/02 01:11:57;;;;;;;3.55;2.58;;;;;;;-7.47;80.90;97449.38;4860841;29;20114;-85
2021/12/02 01:14:25;;;;;;;4.57;2.05;;;;;;;-7.46;80.92;97453.63;4834406;29;20522;-84
2021/12/02 01:16:52;;;;;;;4.95;3.00;;;;;;;-7.39;80.59;97469.50;4840983;29;20050;-84
2021/12/02 01:19:20;;;;;;;5.47;3.10;;;;;;;-7.40;79.97;97441.63;4841407;29;20421;-83
2021/12/02 01:21:48;;;;;;;6.45;3.33;;;;;;;-7.37;80.26;97449.16;4841401;29;20074;-84
2021/12/02 01:24:18;;;;;;;4.30;1.90;;;;;;;-7.32;80.01;97456.50;4842310;29;20058;-84
2021/12/02 01:26:51;;;;;;;4.72;2.70;;;;;;;-7.31;78.81;97464.22;4840692;29;20050;-83
2021/12/02 01:29:38;;;;;;;4.35;2.28;;;;;;;-7.32;78.85;97462.56;4840976;29;20049;-84
2021/12/02 01:32:19;;;;;;;3.80;2.72;;;;;;;-7.38;79.24;97468.50;4795868;29;20058;-85
2021/12/02 01:34:47;;;;;;;4.82;2.72;;;;;;;-7.44;79.17;97458.69;4794922;29;20061;-84
2021/12/02 01:37:15;;;;;;;5.25;3.35;;;;;;;-7.34;79.36;97463.72;4824334;29;20054;-82
2021/12/02 01:39:42;;;;;;;6.05;3.28;;;;;;;-7.35;79.46;97451.63;4824333;29;20050;-84
2021/12/02 01:42:15;;;;;;;5.78;2.92;;;;;;;-7.33;79.57;97465.38;4824443;29;20058;-83
2021/12/02 01:44:42;;;;;;;7.10;2.72;;;;;;;-7.30;79.40;97475.53;4824522;29;20058;-83
2021/12/02 01:47:14;;;;;;;4.40;2.03;;;;;;;-7.26;79.34;97471.59;4840587;29;20058;-83
2021/12/02 01:49:42;;;;;;;3.83;2.63;;;;;;;-7.23;78.66;97474.69;4824072;29;20053;-83
2021/12/02 01:52:11;;;;;;;2.88;1.90;;;;;;;-7.24;78.52;97478.28;4840464;29;20058;-83
2021/12/02 01:54:45;;;;;;;4.40;2.60;;;;;;;-7.25;78.30;97484.50;4840508;29;20074;-83
2021/12/02 01:57:34;;;;;;;3.67;2.00;;;;;;;-7.29;78.04;97498.13;4840294;29;20054;-84
2021/12/02 02:03:34;;;;;;;2.50;1.52;;;;;;;-7.30;76.11;97480.75;4801569;29;20055;-82
2021/12/02 02:06:04;;;;;;;3.15;2.03;;;;;;;-7.32;76.19;97470.44;4801670;29;20138;-82
2021/12/02 02:08:32;;;;;;;2.58;1.60;;;;;;;-7.32;76.13;97487.97;4787349;29;20062;-83
2021/12/02 02:10:59;;;;;;;2.15;1.33;;;;;;;-7.32;76.35;97487.97;4773009;29;20558;-84
2021/12/02 02:13:26;;;;;;;2.55;1.50;;;;;;;-7.28;76.18;97495.34;4805175;29;20070;-84
2021/12/02 02:15:54;;;;;;;3.03;2.22;;;;;;;-7.28;75.87;97490.09;4805073;29;20090;-84
2021/12/02 02:18:22;;;;;;;3.45;1.73;;;;;;;-7.29;75.95;97491.09;4805415;29;20571;-83
2021/12/02 02:21:02;;;;;;;3.08;2.13;;;;;;;-7.34;76.04;97495.19;4804821;29;20505;-86
2021/12/02 02:23:33;;;;;;;2.70;1.73;;;;;;;-7.32;76.31;97503.69;4805037;29;20070;-83
2021/12/02 02:26:00;;;;;;;3.97;2.08;;;;;;;-7.31;76.54;97500.13;4804886;29;20063;-85
2021/12/02 02:28:28;;;;;;;3.55;1.77;;;;;;;-7.29;76.56;97519.09;4804865;29;20050;-84
2021/12/02 02:30:55;;;;;;;2.97;2.13;;;;;;;-7.27;76.28;97506.63;4804795;29;20059;-84
2021/12/02 02:33:23;;;;;;;3.72;1.85;;;;;;;-7.26;76.36;97514.34;4790077;29;20047;-84
2021/12/02 02:35:50;;;;;;;2.80;1.63;;;;;;;-7.34;76.14;97493.41;4804459;29;20058;-85
2021/12/02 02:38:17;;;;;;;2.97;1.85;;;;;;;-7.24;76.49;97509.75;4804973;29;20164;-84
2021/12/02 02:40:46;;;;;;;2.95;1.50;;;;;;;-7.26;76.52;97518.78;4836179;29;20127;-84
2021/12/02 02:43:21;;;;;;;4.63;2.80;;;;;;;-7.27;76.05;97511.88;4843647;29;20054;-84
2021/12/02 02:45:49;;;;;;;3.40;2.13;;;;;;;-7.24;75.77;97516.78;4843078;29;20050;-84
2021/12/02 02:48:16;;;;;;;5.53;2.95;;;;;;;-7.25;76.11;97517.78;4826635;29;20480;-84
2021/12/02 02:50:43;;;;;;;4.72;1.98;;;;;;;-7.24;76.38;97524.66;4842694;29;20054;-85
2021/12/02 02:53:16;;;;;;;3.75;2.30;;;;;;;-7.23;75.96;97508.75;4843226;29;20058;-84
2021/12/02 02:56:09;;;;;;;3.65;2.22;;;;;;;-7.21;75.59;97516.47;4842942;29;20095;-82
2021/12/02 02:58:48;;;;;;;3.22;2.00;;;;;;;-7.22;75.26;97522.69;4830989;29;20467;-87
2021/12/02 03:12:26;;;;;;;;;;;;;;;;;;;;;
2021/12/02 03:19:26;;;;;;;4.28;2.00;;;;;;;-7.35;77.71;97552.03;4783872;29;20059;-90
2021/12/02 03:21:56;;;;;;;3.72;2.03;;;;;;;-7.41;77.83;97543.03;4775219;30;20055;-91
2021/12/02 03:24:25;;;;;;;2.10;1.45;;;;;;;-7.41;77.79;97553.53;4759199;30;20063;-87
2021/12/02 03:26:52;;;;;;;4.65;1.73;;;;;;;-7.37;78.37;97554.00;4769887;30;20059;-88
2021/12/02 03:29:19;;;;;;;4.10;1.90;;;;;;;-7.40;78.68;97556.97;4764014;30;20646;-94
2021/12/02 03:34:54;;;;;;;2.78;1.67;;;;;;;-7.45;79.50;97562.69;4785100;30;20153;-91
2021/12/02 03:37:21;;;;;;;4.07;1.88;;;;;;;-7.41;79.41;97558.78;4789051;30;20265;-86
2021/12/02 03:39:48;;;;;;;2.35;1.77;;;;;;;-7.37;78.85;97563.66;4785976;30;20177;-88
2021/12/02 03:42:15;;;;;;;2.17;1.60;;;;;;;-7.44;78.91;97558.28;4786404;30;20100;-88
2021/12/02 03:44:46;;;;;;;1.75;1.40;;;;;;;-7.47;79.20;97571.72;4785297;30;20084;-89
2021/12/02 03:47:13;;;;;;;2.80;1.50;;;;;;;-7.51;79.46;97576.47;4836968;24;20056;-89
2021/12/02 03:49:41;;;;;;;2.40;1.85;;;;;;;-7.50;79.59;97570.22;4870103;29;20087;-87
2021/12/02 03:52:08;;;;;;;2.97;2.05;;;;;;;-7.50;79.54;97582.53;4832379;29;20144;-88
2021/12/02 03:54:35;;;;;;;4.60;2.28;;;;;;;-7.54;79.61;97573.38;4847813;29;20060;-91
2021/12/02 03:57:02;;;;;;;2.33;1.73;;;;;;;-7.53;79.79;97577.63;4865022;29;20071;-90
2021/12/02 03:59:31;;;;;;;3.42;1.60;;;;;;;-7.55;80.08;97576.97;4865110;29;20144;-90
2021/12/02 04:02:00;;;;;;;3.40;1.92;;;;;;;-7.61;80.29;97575.81;4865286;29;20050;-90
2021/12/02 04:04:28;;;;;;;2.20;1.33;;;;;;;-7.64;80.28;97587.44;4850228;29;20057;-90
2021/12/02 04:06:55;;;;;;;2.78;2.00;;;;;;;-7.61;80.13;97598.59;4865026;29;20086;-91
2021/12/02 04:09:25;;;;;;;6.15;1.85;;;;;;;-7.58;80.06;97600.88;4866073;29;20473;-90
2021/12/02 04:12:04;;;;;;;4.57;1.67;;;;;;;-7.62;80.14;97603.03;4864716;29;20056;-90
2021/12/02 04:14:41;;;;;;;2.97;1.90;;;;;;;-7.66;80.15;97602.50;4835577;29;20045;-90
2021/12/02 04:17:09;;;;;;;4.75;1.98;;;;;;;-7.65;80.37;97604.13;4849150;29;20102;-91
2021/12/02 04:19:37;;;;;;;2.15;1.85;;;;;;;-7.63;80.07;97598.75;4867464;29;20057;-91
2021/12/02 04:22:04;;;;;;;2.05;1.38;;;;;;;-7.64;79.93;97604.97;4868383;29;20144;-91
2021/12/02 04:24:32;;;;;;;3.45;1.88;;;;;;;-7.66;79.97;97605.13;4867260;29;20577;-91
2021/12/02 04:27:00;;;;;;;3.40;1.88;;;;;;;-7.73;79.94;97595.47;4834567;29;20061;-90
2021/12/02 04:29:29;;;;;;;3.67;2.08;;;;;;;-7.71;79.94;97596.13;4817060;29;20133;-91
2021/12/02 04:31:56;;;;;;;2.22;1.50;;;;;;;-7.73;79.65;97605.94;4829387;29;20053;-90
2021/12/02 04:34:25;;;;;;;6.15;2.17;;;;;;;-7.86;79.62;97607.25;4835903;29;20053;-91
2021/12/02 04:36:54;;;;;;;4.18;1.83;;;;;;;-8.00;80.06;97604.44;4833128;29;20069;-91
2021/12/02 04:39:21;;;;;;;3.60;1.80;;;;;;;-8.11;80.04;97614.25;4846771;29;20070;-90
2021/12/02 04:41:48;;;;;;;3.13;1.58;;;;;;;-8.22;80.59;97611.94;4845635;29;20065;-90
2021/12/02 04:44:18;;;;;;;1.40;1.15;;;;;;;-8.26;80.82;97615.03;4847745;29;20535;-90
2021/12/02 04:46:50;;;;;;;3.25;1.60;;;;;;;-8.19;80.82;97627.31;4831099;29;20050;-90
2021/12/02 04:49:23;;;;;;;3.22;2.15;;;;;;;-8.23;80.33;97622.56;4804577;29;20141;-92
2021/12/02 04:51:50;;;;;;;3.75;2.20;;;;;;;-8.27;80.72;97624.69;4832117;29;20060;-91
2021/12/02 04:54:18;;;;;;;3.25;1.90;;;;;;;-8.29;80.48;97619.59;4833026;29;20102;-89
2021/12/02 04:56:46;;;;;;;5.55;2.30;;;;;;;-8.32;80.29;97622.53;4804193;29;20057;-90
2021/12/02 04:59:14;;;;;;;4.45;2.25;;;;;;;-8.29;80.36;97611.75;4803595;29;20077;-92
2021/12/02 05:01:42;;;;;;;4.78;2.67;;;;;;;-8.16;80.42;97634.03;4851666;29;20543;-90
2021/12/02 05:04:09;;;;;;;3.47;2.20;;;;;;;-8.14;80.45;97632.88;4836486;29;20521;-90
2021/12/02 05:06:37;;;;;;;8.10;2.40;;;;;;;-8.10;80.35;97631.59;4860109;29;20060;-89
2021/12/02 05:09:05;;;;;;;4.65;2.30;;;;;;;-8.08;80.26;97634.88;4834357;29;20045;-90
2021/12/02 05:11:41;;;;;;;5.43;2.08;;;;;;;-8.08;80.07;97647.13;4831919;29;20057;-92
2021/12/02 05:14:25;;;;;;;5.65;2.50;;;;;;;-8.14;79.96;97645.97;4821923;29;20485;-92
2021/12/02 05:16:52;;;;;;;4.05;2.20;;;;;;;-8.18;80.20;97643.84;4801096;29;20450;-92
2021/12/02 05:19:19;;;;;;;5.78;2.67;;;;;;;-8.24;80.20;97640.06;4810482;29;20055;-89
2021/12/02 05:21:48;;;;;;;5.47;2.50;;;;;;;-8.20;80.07;97646.63;4783963;29;20063;-91
2021/12/02 05:24:17;;;;;;;5.05;2.28;;;;;;;-8.28;80.02;97638.72;4779046;29;20059;-92
2021/12/02 05:26:45;;;;;;;4.78;2.45;;;;;;;-8.21;80.25;97650.22;4790158;29;20495;-93
2021/12/02 05:29:19;;;;;;;;;;;;;;;-8.10;79.60;97664.78;4799529;29;20062;-92
2021/12/02 05:31:46;;;;;;;5.50;2.83;;;;;;;-8.13;79.44;97659.88;4809354;29;19976;-91
2021/12/02 05:34:13;;;;;;;5.53;2.58;;;;;;;-8.12;79.59;97661.53;4796764;29;20050;-91
2021/12/02 05:36:41;;;;;;;5.65;3.22;;;;;;;-8.09;79.03;97667.25;4780180;29;20051;-92
2021/12/02 05:39:13;;;;;;;5.15;3.08;;;;;;;-8.09;79.23;97669.06;4795594;29;20107;-93
2021/12/02 05:41:55;;;;;;;3.60;2.22;;;;;;;-8.07;79.19;97672.34;4794626;29;20059;-91
2021/12/02 05:44:22;;;;;;;5.07;1.90;;;;;;;-7.98;78.49;97675.81;4793512;29;20086;-91
2021/12/02 05:46:52;;;;;;;4.47;2.60;;;;;;;-7.95;77.94;97688.56;4803297;29;20065;-90
2021/12/02 05:49:21;;;;;;;4.88;2.00;;;;;;;-7.90;77.80;97695.00;4864537;29;20064;-91
2021/12/02 05:51:49;;;;;;;3.58;1.95;;;;;;;-7.86;77.25;97693.66;4862472;29;20037;-93
2021/12/02 05:54:19;;;;;;;4.13;2.20;;;;;;;-7.87;77.42;97684.19;4835528;29;20061;-90
2021/12/02 05:56:50;;;;;;;5.60;2.60;;;;;;;-7.81;77.43;97685.34;4863921;29;20053;-91
2021/12/02 05:59:18;;;;;;;5.32;2.25;;;;;;;-7.77;77.47;97683.22;4820452;29;20061;-93
2021/12/02 06:01:45;;;;;;;4.68;2.50;;;;;;;-7.73;77.28;97701.06;4856909;29;20075;-92
2021/12/02 06:04:17;;;;;;;4.10;2.40;;;;;;;-7.65;76.87;97687.97;4824662;29;20054;-91
2021/12/02 06:06:44;;;;;;;5.95;2.15;;;;;;;-7.61;76.34;97688.50;4856270;29;20060;-91
2021/12/02 06:09:26;;;;;;;5.07;2.85;;;;;;;-7.55;76.42;97695.69;4844129;29;20050;-91
2021/12/02 06:11:53;;;;;;;5.47;2.35;;;;;;;-7.55;76.57;97687.84;4851861;29;20078;-91
2021/12/02 06:14:20;;;;;;;3.78;2.63;;;;;;;-7.53;76.37;97695.53;4848378;29;20050;-91
2021/12/02 06:16:47;;;;;;;4.00;1.98;;;;;;;-7.50;76.24;97709.13;4833355;29;20054;-92
2021/12/02 06:19:14;;;;;;;5.78;2.83;;;;;;;-7.49;76.31;97710.78;4846295;29;20105;-92
2021/12/02 06:21:42;;;;;;;3.95;2.33;;;;;;;-7.44;75.84;97721.59;4852417;29;20639;-91
2021/12/02 06:24:09;;;;;;;4.93;2.10;;;;;;;-7.45;75.86;97727.81;4830813;29;20062;-92
2021/12/02 06:26:38;;;;;;;4.07;2.03;;;;;;;-7.41;75.74;97737.00;4815875;29;20071;-90
2021/12/02 06:29:05;;;;;;;2.70;1.65;;;;;;;-7.38;76.10;97727.19;4810042;29;20043;-91
2021/12/02 06:31:33;;;;;;;5.57;2.67;;;;;;;-7.39;75.74;97720.28;4844180;29;20446;-90
2021/12/02 06:34:02;;;;;;;4.38;2.33;;;;;;;-7.33;76.00;97728.31;4818388;29;20050;-91
2021/12/02 06:36:29;;;;;;;5.88;2.70;;;;;;;-7.29;75.51;97724.41;4833081;29;20058;-92
2021/12/02 06:38:59;;;;;;;2.92;1.90;;;;;;;-7.25;75.54;97719.66;4838475;29;20058;-92
2021/12/02 06:41:26;;;;;;;3.40;2.20;;;;;;;-7.20;75.50;97723.41;4815198;29;20069;-93
2021/12/02 06:43:55;;;;;;;4.28;2.42;;;;;;;-7.17;75.30;97729.31;4836466;29;20093;-92
2021/12/02 06:46:22;;;;;;;6.20;2.88;;;;;;;-7.14;75.26;97721.97;4812063;29;20046;-92
2021/12/02 06:49:05;;;;;;;4.93;2.60;;;;;;;-7.06;75.54;97732.44;4813514;29;20172;-93
2021/12/02 06:51:32;;;;;;;4.60;2.25;;;;;;;-6.98;74.83;97727.19;4850239;29;20050;-90
2021/12/02 06:54:04;;;;;;;4.47;2.53;;;;;;;-6.97;74.66;97728.81;4835728;29;20065;-90
2021/12/02 06:56:52;;;;;;;4.45;2.90;;;;;;;-6.93;74.24;97718.03;4821414;29;20091;-90
2021/12/02 06:59:21;;;;;;;4.57;2.20;;;;;;;-6.83;73.86;97714.22;4840529;29;20054;-95
2021/12/02 07:02:02;;;;;;;5.95;2.63;;;;;;;-6.76;73.83;97719.63;4815692;29;20047;-92
2021/12/02 07:04:43;;;;;;;4.03;2.40;;;;;;;-6.71;73.67;97717.31;4823128;29;20058;-89
2021/12/02 07:07:13;;;;;;;3.78;2.40;;;;;;;-6.63;73.65;97727.81;4794714;29;20050;-90
2021/12/02 07:09:40;;;;;;;5.65;2.92;;;;;;;-6.65;73.07;97719.28;4817842;29;20061;-89
2021/12/02 07:12:14;;;;;;;19.17;4.25;;;;;;;-6.55;73.19;97717.31;4838571;29;20126;-87
2021/12/02 07:14:51;;;;;;;7.80;3.70;;;;;;;-6.44;73.67;97723.19;4816355;29;20104;-95
2021/12/02 07:17:19;;;;;;;6.70;3.13;;;;;;;-6.42;73.07;97737.78;4838826;29;20042;-88
2021/12/02 07:20:51;;;;;;;5.78;2.50;;;;;;;-6.51;72.29;97733.53;4783745;30;20064;-88
2021/12/02 07:23:20;;;;;;;7.72;4.20;;;;;;;-6.52;72.36;97731.09;4746376;30;20055;-87
2021/12/02 07:25:48;;;;;;;12.65;4.63;;;;;;;-6.46;72.79;97719.91;4785551;30;20056;-86
2021/12/02 07:28:16;;;;;;;8.68;4.72;;;;;;;-6.36;73.30;97721.34;4761294;30;20138;-90
2021/12/02 07:30:44;;;;;;;9.75;3.92;;;;;;;-6.27;73.57;97714.28;4787255;30;20055;-89
2021/12/02 07:33:14;;;;;;;7.93;3.78;;;;;;;-6.16;73.71;97727.03;4763006;30;20059;-92
2021/12/02 07:35:52;;;;;;;6.00;3.50;;;;;;;-6.19;73.00;97723.94;4746646;30;20062;-86
2021/12/02 07:38:20;;;;;;;6.13;3.50;;;;;;;-6.25;72.00;97725.44;4777697;30;20123;-88
2021/12/02 07:40:48;;;;;;;8.50;3.92;;;;;;;-6.27;71.97;97730.03;4766583;30;20051;-89
2021/12/02 07:43:18;;;;;;;8.23;3.58;;;;;;;-6.22;72.27;97726.91;4797971;30;20050;-91
2021/12/02 07:46:05;;;;;;;6.10;3.08;;;;;;;-6.12;71.95;97722.28;4777037;30;20133;-94
2021/12/02 07:49:08;;;;;;;9.27;3.88;;;;;;;-6.05;72.10;97725.00;4773869;30;20064;-90
2021/12/02 07:52:03;;;;;;;7.13;4.10;;;;;;;-5.97;72.12;97732.88;4799762;30;20114;-88
2021/12/02 07:54:38;;;;;;;9.48;4.32;;;;;;;-6.05;71.99;97723.22;4445808;30;10000982;-86
2021/12/02 08:03:18;;;;;;;8.65;4.30;;;;;;;-6.07;72.07;97727.84;5085330;23;20247;-86
2021/12/02 08:05:47;;;;;;;6.65;3.47;;;;;;;-6.08;72.55;97712.22;4867821;29;20116;-89
2021/12/02 08:11:41;;;;;;;9.02;3.72;;;;;;;-6.07;71.99;97704.19;4861244;29;20054;-94
2021/12/02 08:14:17;;;;;;;10.18;3.88;;;;;;;-6.16;71.48;97699.94;4859575;29;20509;-94
2021/12/02 08:16:46;;;;;;;12.27;5.13;;;;;;;-5.90;72.03;97723.28;4867039;29;20053;-88
2021/12/02 08:19:38;;;;;;;15.57;5.00;;;;;;;-5.75;72.03;97716.28;4861201;29;20108;-91
2021/12/02 08:22:06;;;;;;;7.25;3.88;;;;;;;-5.86;71.02;97695.69;4817322;29;20085;-89
2021/12/02 08:24:33;;;;;;;5.70;2.00;;;;;;;-5.78;71.10;97700.06;4846454;29;20536;-88
2021/12/02 08:27:00;;;;;;;12.95;5.22;;;;;;;-5.88;71.30;97703.72;4846716;29;20050;-86
2021/12/02 08:29:27;;;;;;;7.55;3.22;;;;;;;-5.92;71.51;97699.00;4833028;29;20061;-87
2021/12/02 08:31:56;;;;;;;7.10;3.45;;;;;;;-5.94;71.65;97695.75;4826421;29;20520;-87
2021/12/02 08:34:23;;;;;;;6.13;3.53;;;;;;;-5.84;72.16;97700.78;4821868;29;20050;-85
2021/12/02 08:36:54;;;;;;;13.50;3.60;;;;;;;-5.75;71.95;97700.53;4810821;29;20117;-90
2021/12/02 08:39:27;;;;;;;6.85;4.00;;;;;;;-5.70;71.61;97700.03;4833120;29;20054;-91
2021/12/02 08:41:55;;;;;;;10.38;3.38;;;;;;;-5.70;71.62;97698.22;4847796;29;20057;-87
2021/12/02 08:44:41;;;;;;;7.23;3.53;;;;;;;-5.62;71.27;97683.38;4835239;29;20054;-88
2021/12/02 08:47:12;;;;;;;9.55;3.72;;;;;;;-5.62;71.16;97675.50;4832609;29;20051;-90
2021/12/02 08:49:39;;;;;;;5.03;2.85;;;;;;;-5.57;71.11;97681.88;4827545;29;20054;-89
2021/12/02 08:52:11;;;;;;;7.18;3.08;;;;;;;-5.49;71.05;97675.75;4828950;29;20544;-91
2021/12/02 08:54:38;;;;;;;12.02;3.70;;;;;;;-5.43;70.94;97677.66;4830847;29;20050;-84
2021/12/02 08:57:05;;;;;;;5.35;2.78;;;;;;;-5.36;71.03;97672.53;4825828;29;20117;-89
2021/12/02 08:59:34;;;;;;;5.80;3.47;;;;;;;-5.40;70.70;97684.38;4833083;29;20121;-91
2021/12/02 09:02:02;;;;;;;6.13;2.92;;;;;;;-5.49;70.30;97679.19;4818153;29;20054;-90
2021/12/02 09:04:30;;;;;;;4.82;2.85;;;;;;;-5.41;70.93;97678.31;4825495;29;20058;-89
2021/12/02 09:06:57;;;;;;;10.52;3.85;;;;;;;-5.32;71.06;97686.97;4832578;29;20046;-90
2021/12/02 09:09:30;;;;;;;8.82;3.58;;;;;;;-5.29;70.67;97694.50;4830068;29;20084;-89
2021/12/02 09:11:57;;;;;;;9.07;3.22;;;;;;;-5.34;70.04;97694.19;4836069;29;20050;-88
2021/12/02 09:14:25;;;;;;;6.80;3.63;;;;;;;-5.51;69.92;97673.28;4787727;29;20061;-88
2021/12/02 09:16:52;;;;;;;8.18;3.97;;;;;;;-5.34;70.62;97684.53;4789819;29;20061;-88
2021/12/02 09:19:26;;;;;;;5.93;3.17;;;;;;;-5.33;70.75;97680.06;4777835;29;20053;-90
2021/12/02 09:21:53;;;;;;;6.97;3.70;;;;;;;-5.28;70.59;97680.34;4811428;29;20067;-87
2021/12/02 09:24:20;;;;;;;4.95;2.80;;;;;;;-5.23;70.69;97691.97;4809038;29;20061;-88
2021/12/02 09:26:50;;;;;;;7.50;3.80;;;;;;;-5.17;70.63;97689.63;4817937;29;20521;-88
2021/12/02 09:29:18;;;;;;;6.63;3.60;;;;;;;-5.22;70.33;97682.28;4806434;29;20148;-87
2021/12/02 09:31:47;;;;;;;7.35;3.83;;;;;;;-5.18;70.42;97677.50;4809480;29;20056;-87
2021/12/02 09:34:15;;;;;;;7.13;3.40;;;;;;;-5.27;70.26;97660.94;4822810;29;20073;-88
2021/12/02 09:36:43;;;;;;;7.18;3.92;;;;;;;-5.12;70.33;97664.44;4833822;29;20062;-89
2021/12/02 09:39:13;;;;;;;5.70;3.58;;;;;;;-5.12;70.35;97661.00;4828194;29;20046;-84
2021/12/02 09:41:41;;;;;;;5.43;3.38;;;;;;;-5.13;70.44;97654.09;4827648;29;20149;-86
2021/12/02 09:44:11;;;;;;;6.78;3.45;;;;;;;-5.28;70.16;97651.44;4805279;29;20057;-86
2021/12/02 09:46:40;;;;;;;9.07;3.03;;;;;;;-5.32;70.31;97647.50;4810125;29;20064;-88
2021/12/02 09:49:14;;;;;;;5.63;2.60;;;;;;;-5.39;70.19;97636.06;4842799;29;20109;-88
2021/12/02 09:54:26;;;;;;;3.85;2.50;;;;;;;-5.34;70.62;97633.72;4834376;29;20496;-87
2021/12/02 09:56:56;;;;;;;4.93;2.90;;;;;;;-5.34;70.53;97639.81;4830775;29;20030;-89
2021/12/02 09:59:52;;;;;;;7.97;3.30;;;;;;;-5.31;71.04;97636.00;4818040;29;20054;-89
2021/12/02 12:29:25;;;;;;;10.30;5.25;;;;;;;-5.10;81.69;97506.41;4685683;27;10001980;-90
2021/12/02 12:32:03;;;;;;;9.68;6.13;;;;;;;-5.20;82.38;97496.16;5100924;28;20058;-92
2021/12/02 12:36:59;;;;;;;12.52;5.80;;;;;;;-5.38;82.96;97482.56;5098914;28;20039;-90
2021/12/02 12:39:33;;;;;;;10.95;4.95;;;;;;;-5.46;83.02;97470.31;5111230;28;20056;-90
2021/12/02 12:42:16;;;;;;;10.65;5.97;;;;;;;-5.39;83.56;97486.16;5098112;28;20134;-87
2021/12/02 12:44:55;;;;;;;11.23;6.47;;;;;;;-5.43;83.55;97469.94;5127228;28;20059;-90
2021/12/02 12:47:46;;;;;;;12.35;5.85;;;;;;;-5.41;84.05;97481.09;5098097;28;20055;-92
2021/12/02 12:50:47;;;;;;;12.80;6.80;;;;;;;-5.44;84.28;97478.84;5130801;27;20039;-90
2021/12/02 12:53:37;;;;;;;6.88;3.78;;;;;;;-5.44;84.64;97481.47;5089352;28;20027;-89
2021/12/02 12:56:35;;;;;;;10.98;5.43;;;;;;;-5.45;84.52;97482.44;5060763;28;20033;-91
2021/12/02 12:59:12;;;;;;;11.13;6.00;;;;;;;-5.52;85.04;97469.22;5047458;28;20071;-89
2021/12/02 13:01:53;;;;;;;12.90;6.43;;;;;;;-5.46;85.06;97470.31;5086559;28;20061;-90
2021/12/02 13:04:25;;;;;;;11.50;5.97;;;;;;;-5.48;85.20;97472.31;5068709;28;20051;-87
2021/12/02 13:07:01;;;;;;;11.07;5.85;;;;;;;-5.51;85.63;97451.63;5056172;28;20053;-89
2021/12/02 13:10:25;;;;;;;12.88;5.80;;;;;;;-5.46;85.97;97454.53;5065890;28;20055;-90
2021/12/02 13:13:06;;;;;;;11.77;6.43;;;;;;;-5.43;86.06;97445.47;5063523;28;20072;-90
2021/12/02 13:15:34;;;;;;;13.02;7.38;;;;;;;-5.35;86.01;97450.63;5066777;28;20143;-87
2021/12/02 13:18:06;;;;;;;13.70;6.43;;;;;;;-5.37;86.04;97442.09;5062737;28;20695;-91
2021/12/02 13:20:43;;;;;;;11.80;6.20;;;;;;;-5.36;86.11;97436.69;5038057;28;20057;-90
2021/12/02 13:23:11;;;;;;;16.67;7.50;;;;;;;-5.38;86.09;97441.31;5059747;28;20068;-88
2021/12/02 13:25:47;;;;;;;12.95;7.85;;;;;;;-5.39;86.34;97431.78;5095590;28;20139;-89
2021/12/02 13:28:19;;;;;;;11.38;6.60;;;;;;;-5.40;86.49;97430.13;5093363;28;20071;-89
2021/12/02 13:30:51;;;;;;;15.57;7.32;;;;;;;-5.41;86.43;97419.81;5055381;28;20059;-90
2021/12/02 13:33:52;;;;;;;15.55;6.85;;;;;;;-5.42;86.48;97429.50;5060975;28;20104;-89
2021/12/02 13:36:45;;;;;;;16.65;8.32;;;;;;;-5.45;86.50;97417.53;5074308;28;20095;-89
2021/12/02 13:39:44;;;;;;;9.18;5.72;;;;;;;-5.41;86.63;97425.09;5071889;28;20218;-88
2021/12/02 13:42:34;;;;;;;29.30;7.05;;;;;;;-5.40;86.57;97422.25;5083390;28;20060;-89
2021/12/02 13:45:20;;;;;;;15.95;7.55;;;;;;;-5.37;86.80;97408.72;5035339;28;20052;-90
2021/12/02 13:48:29;;;;;;;16.00;7.53;;;;;;;-5.31;86.91;97426.44;5041800;28;20068;-88
2021/12/02 13:50:56;;;;;;;21.20;12.10;;;;;;;-5.32;86.94;97422.16;5074864;28;20040;-89
2021/12/02 13:53:27;;;;;;;20.27;8.35;;;;;;;-5.34;86.99;97415.44;5095593;28;20052;-88
2021/12/02 13:55:57;;;;;;;12.55;5.32;;;;;;;-5.36;87.05;97391.16;5079103;28;20067;-86
2021/12/02 13:58:37;;;;;;;16.38;7.10;;;;;;;-5.36;87.15;97380.66;5076497;28;20024;-86
2021/12/02 14:01:10;;;;;;;12.30;5.43;;;;;;;-5.30;87.03;97399.13;5095829;28;20040;-87
2021/12/02 14:04:01;;;;;;;7.43;4.65;;;;;;;-5.31;87.17;97386.19;5059255;28;20075;-87
2021/12/02 14:06:42;;;;;;;12.68;6.25;;;;;;;-5.27;87.01;97395.31;5076274;28;20045;-87
2021/12/02 14:09:17;;;;;;;10.88;5.80;;;;;;;-5.23;86.95;97391.31;5080326;28;20061;-87
2021/12/02 14:12:06;;;;;;;10.43;5.03;;;;;;;-5.21;86.86;97394.59;5050610;28;20056;-89
2021/12/02 14:14:37;;;;;;;12.98;5.60;;;;;;;-5.28;86.94;97383.16;5083332;28;20121;-88
2021/12/02 14:17:21;;;;;;;9.63;6.00;;;;;;;-5.24;87.20;97394.97;5073563;28;20052;-87
2021/12/02 14:20:10;;;;;;;10.10;5.38;;;;;;;-5.26;87.32;97392.50;5053243;28;20048;-87
2021/12/02 14:22:40;;;;;;;11.27;6.95;;;;;;;-5.21;87.37;97375.38;5036584;28;20083;-90
2021/12/02 14:25:11;;;;;;;11.13;6.00;;;;;;;-5.23;87.34;97381.63;5074462;28;20480;-90
2021/12/02 14:27:41;;;;;;;14.55;6.85;;;;;;;-5.23;87.58;97389.50;5101495;22;20076;-88
2021/12/02 14:30:19;;;;;;;11.90;6.22;;;;;;;-5.19;87.53;97381.25;5000763;28;20046;-91
2021/12/02 14:32:52;;;;;;;10.07;5.32;;;;;;;-5.21;87.38;97385.91;4960881;28;20081;-84
2021/12/02 14:35:22;;;;;;;12.25;6.88;;;;;;;-5.18;87.39;97398.66;5016039;28;20504;-88
2021/12/02 14:37:50;;;;;;;9.70;5.38;;;;;;;-5.16;87.19;97389.59;5027440;28;20072;-88
2021/12/02 14:40:43;;;;;;;10.07;5.47;;;;;;;-5.12;87.16;97376.88;5031831;28;20471;-89
2021/12/02 14:43:14;;;;;;;10.93;5.53;;;;;;;-5.15;87.00;97385.16;5025100;28;20077;-92
2021/12/02 14:45:43;;;;;;;6.85;4.45;;;;;;;-5.09;86.95;97402.81;5023118;28;20061;-89
2021/12/02 14:48:44;;;;;;;7.32;4.28;;;;;;;-5.02;86.64;97393.19;5033026;28;20054;-90
2021/12/02 14:51:16;;;;;;;9.68;5.20;;;;;;;-4.99;86.38;97389.38;4953455;29;20058;-89
2021/12/02 14:53:51;;;;;;;9.25;4.53;;;;;;;-4.96;86.35;97400.34;4975666;28;20106;-90
2021/12/02 14:56:36;;;;;;;7.07;4.30;;;;;;;-4.99;86.09;97370.94;4948212;29;20051;-89
2021/12/02 14:59:11;;;;;;;10.60;4.78;;;;;;;-4.94;86.04;97379.91;4948994;29;20565;-88
2021/12/02 15:02:08;;;;;;;9.98;5.45;;;;;;;-4.91;85.95;97371.66;4959733;28;20066;-90
2021/12/02 15:04:51;;;;;;;7.53;4.82;;;;;;;-4.89;86.21;97382.00;4952646;29;20051;-90
2021/12/02 15:07:30;;;;;;;7.90;4.70;;;;;;;-4.84;86.38;97383.06;4996059;28;20051;-91